sensor_id;sensor_type;location;lat;lon;timestamp;P1;durP1;ratioP1;P2;durP2;ratioP2
13388;SDS011;6764;53.250;10.410;2023-10-13T00:01:07;12.85;;;4.10;;
13388;SDS011;6764;53.250;10.410;2023-10-13T00:03:36;7.93;;;4.55;;
13388;SDS011;6764;53.250;10.410;2023-10-13T00:06:02;11.47;;;4.57;;
13388;SDS011;6764;53.250;10.410;2023-10-13T00:08:31;11.60;;;4.05;;
13388;SDS011;6764;53.250;10.410;2023-10-13T00:10:57;10.93;;;4.75;;
13388;SDS011;6764;53.250;10.410;2023-10-13T00:13:27;11.93;;;4.53;;
13388;SDS011;6764;53.250;10.410;2023-10-13T00:15:59;9.37;;;4.27;;
13388;SDS011;6764;53.250;10.410;2023-10-13T00:18:26;10.97;;;4.37;;
13388;SDS011;6764;53.250;10.410;2023-10-13T00:20:59;13.57;;;4.60;;
13388;SDS011;6764;53.250;10.410;2023-10-13T00:23:26;10.40;;;4.93;;
13388;SDS011;6764;53.250;10.410;2023-10-13T00:25:52;12.77;;;5.03;;
13388;SDS011;6764;53.250;10.410;2023-10-13T00:28:28;11.07;;;5.20;;
13388;SDS011;6764;53.250;10.410;2023-10-13T00:31:11;16.02;;;5.60;;
13388;SDS011;6764;53.250;10.410;2023-10-13T00:33:39;17.23;;;5.80;;
13388;SDS011;6764;53.250;10.410;2023-10-13T00:36:06;11.77;;;5.35;;
13388;SDS011;6764;53.250;10.410;2023-10-13T00:38:33;10.68;;;5.28;;
13388;SDS011;6764;53.250;10.410;2023-10-13T00:41:00;9.70;;;5.40;;
13388;SDS011;6764;53.250;10.410;2023-10-13T00:43:44;12.00;;;5.83;;
13388;SDS011;6764;53.250;10.410;2023-10-13T00:46:32;15.20;;;5.97;;
13388;SDS011;6764;53.250;10.410;2023-10-13T00:49:00;11.57;;;6.45;;
13388;SDS011;6764;53.250;10.410;2023-10-13T00:51:29;10.90;;;5.50;;
13388;SDS011;6764;53.250;10.410;2023-10-13T00:54:06;11.18;;;6.28;;
13388;SDS011;6764;53.250;10.410;2023-10-13T00:56:39;13.65;;;6.25;;
13388;SDS011;6764;53.250;10.410;2023-10-13T00:59:17;15.20;;;7.13;;
13388;SDS011;6764;53.250;10.410;2023-10-13T01:01:42;12.45;;;6.88;;
13388;SDS011;6764;53.250;10.410;2023-10-13T01:04:09;13.00;;;6.77;;
13388;SDS011;6764;53.250;10.410;2023-10-13T01:06:38;14.10;;;6.88;;
13388;SDS011;6764;53.250;10.410;2023-10-13T01:09:08;12.65;;;6.85;;
13388;SDS011;6764;53.250;10.410;2023-10-13T01:11:45;12.93;;;6.50;;
13388;SDS011;6764;53.250;10.410;2023-10-13T01:14:20;10.93;;;6.15;;
13388;SDS011;6764;53.250;10.410;2023-10-13T01:16:48;12.63;;;7.38;;
13388;SDS011;6764;53.250;10.410;2023-10-13T01:19:20;11.27;;;7.53;;
13388;SDS011;6764;53.250;10.410;2023-10-13T01:21:53;11.90;;;7.80;;
13388;SDS011;6764;53.250;10.410;2023-10-13T01:24:29;14.35;;;7.90;;
13388;SDS011;6764;53.250;10.410;2023-10-13T01:27:01;16.48;;;7.90;;
13388;SDS011;6764;53.250;10.410;2023-10-13T01:29:51;14.20;;;8.23;;
13388;SDS011;6764;53.250;10.410;2023-10-13T01:32:23;16.13;;;8.38;;
13388;SDS011;6764;53.250;10.410;2023-10-13T01:34:49;16.48;;;9.18;;
13388;SDS011;6764;53.250;10.410;2023-10-13T01:37:20;12.15;;;8.23;;
13388;SDS011;6764;53.250;10.410;2023-10-13T01:39:46;11.40;;;7.90;;
13388;SDS011;6764;53.250;10.410;2023-10-13T01:42:14;11.07;;;8.20;;
13388;SDS011;6764;53.250;10.410;2023-10-13T01:44:44;14.60;;;8.93;;
13388;SDS011;6764;53.250;10.410;2023-10-13T01:47:10;16.80;;;8.57;;
13388;SDS011;6764;53.250;10.410;2023-10-13T01:49:37;12.73;;;8.07;;
13388;SDS011;6764;53.250;10.410;2023-10-13T01:52:12;18.13;;;10.05;;
13388;SDS011;6764;53.250;10.410;2023-10-13T01:54:42;15.23;;;9.50;;
13388;SDS011;6764;53.250;10.410;2023-10-13T01:57:10;15.55;;;8.77;;
13388;SDS011;6764;53.250;10.410;2023-10-13T01:59:42;14.85;;;9.60;;
13388;SDS011;6764;53.250;10.410;2023-10-13T02:02:09;14.30;;;10.10;;
13388;SDS011;6764;53.250;10.410;2023-10-13T02:04:38;17.13;;;9.27;;
13388;SDS011;6764;53.250;10.410;2023-10-13T02:07:13;12.50;;;8.95;;
13388;SDS011;6764;53.250;10.410;2023-10-13T02:09:40;16.00;;;9.95;;
13388;SDS011;6764;53.250;10.410;2023-10-13T02:12:07;15.63;;;10.27;;
13388;SDS011;6764;53.250;10.410;2023-10-13T02:14:34;19.58;;;10.77;;
13388;SDS011;6764;53.250;10.410;2023-10-13T02:17:02;13.70;;;9.18;;
13388;SDS011;6764;53.250;10.410;2023-10-13T02:19:38;13.40;;;9.60;;
13388;SDS011;6764;53.250;10.410;2023-10-13T02:22:10;17.60;;;10.70;;
13388;SDS011;6764;53.250;10.410;2023-10-13T02:24:53;14.35;;;10.10;;
13388;SDS011;6764;53.250;10.410;2023-10-13T02:27:21;18.25;;;10.73;;
13388;SDS011;6764;53.250;10.410;2023-10-13T02:29:49;18.58;;;10.00;;
13388;SDS011;6764;53.250;10.410;2023-10-13T02:32:15;13.77;;;10.07;;
13388;SDS011;6764;53.250;10.410;2023-10-13T02:34:46;12.50;;;9.77;;
13388;SDS011;6764;53.250;10.410;2023-10-13T02:37:12;14.20;;;10.13;;
13388;SDS011;6764;53.250;10.410;2023-10-13T02:39:38;12.43;;;9.50;;
13388;SDS011;6764;53.250;10.410;2023-10-13T02:42:08;14.38;;;10.32;;
13388;SDS011;6764;53.250;10.410;2023-10-13T02:44:41;16.20;;;10.77;;
13388;SDS011;6764;53.250;10.410;2023-10-13T02:47:11;14.75;;;10.75;;
13388;SDS011;6764;53.250;10.410;2023-10-13T02:49:39;16.63;;;9.80;;
13388;SDS011;6764;53.250;10.410;2023-10-13T02:52:09;15.00;;;10.38;;
13388;SDS011;6764;53.250;10.410;2023-10-13T02:54:35;14.05;;;10.15;;
13388;SDS011;6764;53.250;10.410;2023-10-13T02:57:15;13.70;;;10.48;;
13388;SDS011;6764;53.250;10.410;2023-10-13T02:59:42;14.00;;;10.73;;
13388;SDS011;6764;53.250;10.410;2023-10-13T03:02:12;14.32;;;9.73;;
13388;SDS011;6764;53.250;10.410;2023-10-13T03:04:51;16.13;;;10.93;;
13388;SDS011;6764;53.250;10.410;2023-10-13T03:07:27;15.50;;;10.60;;
13388;SDS011;6764;53.250;10.410;2023-10-13T03:09:57;16.52;;;10.77;;
13388;SDS011;6764;53.250;10.410;2023-10-13T03:12:25;16.27;;;11.45;;
13388;SDS011;6764;53.250;10.410;2023-10-13T03:14:51;14.63;;;10.40;;
13388;SDS011;6764;53.250;10.410;2023-10-13T03:17:22;14.15;;;9.70;;
13388;SDS011;6764;53.250;10.410;2023-10-13T03:19:58;14.43;;;10.83;;
13388;SDS011;6764;53.250;10.410;2023-10-13T03:22:25;13.50;;;11.20;;
13388;SDS011;6764;53.250;10.410;2023-10-13T03:24:58;15.43;;;10.98;;
13388;SDS011;6764;53.250;10.410;2023-10-13T03:27:31;15.30;;;11.23;;
13388;SDS011;6764;53.250;10.410;2023-10-13T03:30:26;17.13;;;11.30;;
13388;SDS011;6764;53.250;10.410;2023-10-13T03:33:01;16.48;;;12.75;;
13388;SDS011;6764;53.250;10.410;2023-10-13T03:35:31;15.85;;;11.90;;
13388;SDS011;6764;53.250;10.410;2023-10-13T03:38:07;13.73;;;11.55;;
13388;SDS011;6764;53.250;10.410;2023-10-13T03:40:52;16.48;;;11.52;;
13388;SDS011;6764;53.250;10.410;2023-10-13T03:43:41;16.00;;;11.63;;
13388;SDS011;6764;53.250;10.410;2023-10-13T03:46:32;17.38;;;12.35;;
13388;SDS011;6764;53.250;10.410;2023-10-13T03:48:58;15.40;;;12.40;;
13388;SDS011;6764;53.250;10.410;2023-10-13T03:51:26;17.00;;;13.20;;
13388;SDS011;6764;53.250;10.410;2023-10-13T03:53:56;16.43;;;12.17;;
13388;SDS011;6764;53.250;10.410;2023-10-13T03:56:27;15.45;;;11.95;;
13388;SDS011;6764;53.250;10.410;2023-10-13T03:59:03;18.60;;;12.55;;
13388;SDS011;6764;53.250;10.410;2023-10-13T04:01:31;17.17;;;13.10;;
13388;SDS011;6764;53.250;10.410;2023-10-13T04:04:10;18.10;;;13.85;;
13388;SDS011;6764;53.250;10.410;2023-10-13T04:06:37;17.50;;;13.52;;
13388;SDS011;6764;53.250;10.410;2023-10-13T04:09:16;19.75;;;13.70;;
13388;SDS011;6764;53.250;10.410;2023-10-13T04:12:02;18.48;;;14.80;;
13388;SDS011;6764;53.250;10.410;2023-10-13T04:17:13;22.33;;;15.30;;
13388;SDS011;6764;53.250;10.410;2023-10-13T04:19:47;21.08;;;14.75;;
13388;SDS011;6764;53.250;10.410;2023-10-13T04:22:41;22.60;;;16.45;;
13388;SDS011;6764;53.250;10.410;2023-10-13T04:27:57;24.92;;;17.55;;
13388;SDS011;6764;53.250;10.410;2023-10-13T04:30:42;27.88;;;19.30;;
13388;SDS011;6764;53.250;10.410;2023-10-13T04:33:17;30.10;;;20.58;;
13388;SDS011;6764;53.250;10.410;2023-10-13T04:36:07;28.13;;;21.80;;
13388;SDS011;6764;53.250;10.410;2023-10-13T04:38:43;28.63;;;22.13;;
13388;SDS011;6764;53.250;10.410;2023-10-13T04:41:40;34.40;;;23.77;;
13388;SDS011;6764;53.250;10.410;2023-10-13T04:44:22;31.55;;;23.63;;
13388;SDS011;6764;53.250;10.410;2023-10-13T04:46:55;34.10;;;23.58;;
13388;SDS011;6764;53.250;10.410;2023-10-13T04:49:24;36.00;;;24.60;;
13388;SDS011;6764;53.250;10.410;2023-10-13T04:51:58;32.25;;;24.65;;
13388;SDS011;6764;53.250;10.410;2023-10-13T04:54:26;34.20;;;24.50;;
13388;SDS011;6764;53.250;10.410;2023-10-13T04:57:10;37.10;;;24.73;;
13388;SDS011;6764;53.250;10.410;2023-10-13T04:59:45;36.13;;;26.30;;
13388;SDS011;6764;53.250;10.410;2023-10-13T05:02:33;34.72;;;25.40;;
13388;SDS011;6764;53.250;10.410;2023-10-13T05:05:02;34.30;;;24.15;;
13388;SDS011;6764;53.250;10.410;2023-10-13T05:07:48;34.70;;;25.98;;
13388;SDS011;6764;53.250;10.410;2023-10-13T05:10:34;35.85;;;26.58;;
13388;SDS011;6764;53.250;10.410;2023-10-13T05:13:18;32.60;;;25.70;;
13388;SDS011;6764;53.250;10.410;2023-10-13T05:16:03;35.13;;;27.15;;
13388;SDS011;6764;53.250;10.410;2023-10-13T05:18:47;35.28;;;26.35;;
13388;SDS011;6764;53.250;10.410;2023-10-13T05:21:31;36.40;;;26.25;;
13388;SDS011;6764;53.250;10.410;2023-10-13T05:24:15;33.00;;;26.75;;
13388;SDS011;6764;53.250;10.410;2023-10-13T05:26:59;33.95;;;27.08;;
13388;SDS011;6764;53.250;10.410;2023-10-13T05:29:44;33.70;;;26.85;;
13388;SDS011;6764;53.250;10.410;2023-10-13T05:32:29;39.92;;;29.02;;
13388;SDS011;6764;53.250;10.410;2023-10-13T05:35:14;35.28;;;29.85;;
13388;SDS011;6764;53.250;10.410;2023-10-13T05:37:59;36.60;;;29.83;;
13388;SDS011;6764;53.250;10.410;2023-10-13T05:43:38;37.75;;;29.77;;
13388;SDS011;6764;53.250;10.410;2023-10-13T05:46:22;35.95;;;29.70;;
13388;SDS011;6764;53.250;10.410;2023-10-13T05:48:50;39.75;;;29.08;;
13388;SDS011;6764;53.250;10.410;2023-10-13T05:51:22;31.55;;;28.17;;
13388;SDS011;6764;53.250;10.410;2023-10-13T05:54:00;38.38;;;29.48;;
13388;SDS011;6764;53.250;10.410;2023-10-13T05:56:38;33.83;;;28.90;;
13388;SDS011;6764;53.250;10.410;2023-10-13T05:59:22;35.30;;;27.83;;
13388;SDS011;6764;53.250;10.410;2023-10-13T06:02:06;33.25;;;28.10;;
13388;SDS011;6764;53.250;10.410;2023-10-13T06:05:01;33.90;;;28.42;;
13388;SDS011;6764;53.250;10.410;2023-10-13T06:07:45;37.80;;;29.73;;
13388;SDS011;6764;53.250;10.410;2023-10-13T06:10:29;35.00;;;29.13;;
13388;SDS011;6764;53.250;10.410;2023-10-13T06:13:13;31.55;;;27.63;;
13388;SDS011;6764;53.250;10.410;2023-10-13T06:15:57;37.38;;;28.27;;
13388;SDS011;6764;53.250;10.410;2023-10-13T06:18:41;34.25;;;26.73;;
13388;SDS011;6764;53.250;10.410;2023-10-13T06:21:26;31.23;;;26.52;;
13388;SDS011;6764;53.250;10.410;2023-10-13T06:24:10;32.85;;;27.38;;
13388;SDS011;6764;53.250;10.410;2023-10-13T06:26:54;29.85;;;26.02;;
13388;SDS011;6764;53.250;10.410;2023-10-13T06:29:39;32.08;;;26.33;;
13388;SDS011;6764;53.250;10.410;2023-10-13T06:32:05;29.77;;;25.88;;
13388;SDS011;6764;53.250;10.410;2023-10-13T06:34:37;31.63;;;26.10;;
13388;SDS011;6764;53.250;10.410;2023-10-13T06:37:07;35.20;;;26.10;;
13388;SDS011;6764;53.250;10.410;2023-10-13T06:39:55;29.58;;;25.25;;
13388;SDS011;6764;53.250;10.410;2023-10-13T06:42:50;32.25;;;24.92;;
13388;SDS011;6764;53.250;10.410;2023-10-13T06:45:37;28.48;;;24.05;;
13388;SDS011;6764;53.250;10.410;2023-10-13T06:48:04;26.75;;;23.65;;
13388;SDS011;6764;53.250;10.410;2023-10-13T06:50:30;26.17;;;23.25;;
13388;SDS011;6764;53.250;10.410;2023-10-13T06:53:04;30.65;;;25.05;;
13388;SDS011;6764;53.250;10.410;2023-10-13T06:55:30;26.23;;;23.42;;
13388;SDS011;6764;53.250;10.410;2023-10-13T06:58:00;24.33;;;21.67;;
13388;SDS011;6764;53.250;10.410;2023-10-13T07:00:27;24.08;;;21.52;;
13388;SDS011;6764;53.250;10.410;2023-10-13T07:02:54;22.95;;;20.52;;
13388;SDS011;6764;53.250;10.410;2023-10-13T07:05:33;23.63;;;20.10;;
13388;SDS011;6764;53.250;10.410;2023-10-13T07:08:08;22.35;;;19.85;;
13388;SDS011;6764;53.250;10.410;2023-10-13T07:10:39;23.23;;;19.20;;
13388;SDS011;6764;53.250;10.410;2023-10-13T07:13:28;22.77;;;18.90;;
13388;SDS011;6764;53.250;10.410;2023-10-13T07:15:54;21.20;;;19.15;;
13388;SDS011;6764;53.250;10.410;2023-10-13T07:18:25;25.35;;;20.65;;
13388;SDS011;6764;53.250;10.410;2023-10-13T07:20:51;20.08;;;17.63;;
13388;SDS011;6764;53.250;10.410;2023-10-13T07:23:22;19.73;;;17.73;;
13388;SDS011;6764;53.250;10.410;2023-10-13T07:25:53;22.08;;;17.73;;
13388;SDS011;6764;53.250;10.410;2023-10-13T07:28:20;19.50;;;17.52;;
13388;SDS011;6764;53.250;10.410;2023-10-13T07:30:46;24.33;;;17.95;;
13388;SDS011;6764;53.250;10.410;2023-10-13T07:33:18;20.52;;;17.73;;
13388;SDS011;6764;53.250;10.410;2023-10-13T07:36:08;19.95;;;17.10;;
13388;SDS011;6764;53.250;10.410;2023-10-13T07:38:56;18.75;;;16.70;;
13388;SDS011;6764;53.250;10.410;2023-10-13T07:41:42;18.40;;;16.50;;
13388;SDS011;6764;53.250;10.410;2023-10-13T07:44:07;17.75;;;15.70;;
13388;SDS011;6764;53.250;10.410;2023-10-13T07:46:33;17.02;;;15.02;;
13388;SDS011;6764;53.250;10.410;2023-10-13T07:49:00;15.88;;;14.27;;
13388;SDS011;6764;53.250;10.410;2023-10-13T07:51:34;15.85;;;14.23;;
13388;SDS011;6764;53.250;10.410;2023-10-13T07:54:09;14.73;;;13.27;;
13388;SDS011;6764;53.250;10.410;2023-10-13T07:56:47;15.48;;;13.80;;
13388;SDS011;6764;53.250;10.410;2023-10-13T07:59:13;15.35;;;13.85;;
13388;SDS011;6764;53.250;10.410;2023-10-13T08:01:41;16.63;;;14.82;;
13388;SDS011;6764;53.250;10.410;2023-10-13T08:04:10;14.18;;;12.77;;
13388;SDS011;6764;53.250;10.410;2023-10-13T08:06:36;15.82;;;14.13;;
13388;SDS011;6764;53.250;10.410;2023-10-13T08:09:03;15.68;;;13.57;;
13388;SDS011;6764;53.250;10.410;2023-10-13T08:11:48;14.32;;;12.85;;
13388;SDS011;6764;53.250;10.410;2023-10-13T08:14:14;14.85;;;13.30;;
13388;SDS011;6764;53.250;10.410;2023-10-13T08:16:40;15.05;;;11.57;;
13388;SDS011;6764;53.250;10.410;2023-10-13T08:19:21;14.05;;;12.52;;
13388;SDS011;6764;53.250;10.410;2023-10-13T08:22:05;12.98;;;11.38;;
13388;SDS011;6764;53.250;10.410;2023-10-13T08:24:43;14.57;;;11.18;;
13388;SDS011;6764;53.250;10.410;2023-10-13T08:27:13;12.73;;;10.60;;
13388;SDS011;6764;53.250;10.410;2023-10-13T08:29:43;14.15;;;11.00;;
13388;SDS011;6764;53.250;10.410;2023-10-13T08:32:19;11.75;;;9.90;;
13388;SDS011;6764;53.250;10.410;2023-10-13T08:34:52;10.57;;;9.48;;
13388;SDS011;6764;53.250;10.410;2023-10-13T08:37:17;10.40;;;9.35;;
13388;SDS011;6764;53.250;10.410;2023-10-13T08:39:46;10.27;;;8.27;;
13388;SDS011;6764;53.250;10.410;2023-10-13T08:42:26;10.43;;;8.25;;
13388;SDS011;6764;53.250;10.410;2023-10-13T08:47:59;9.95;;;6.65;;
13388;SDS011;6764;53.250;10.410;2023-10-13T08:50:34;6.82;;;6.20;;
13388;SDS011;6764;53.250;10.410;2023-10-13T08:58:27;9.48;;;6.30;;
13388;SDS011;6764;53.250;10.410;2023-10-13T09:01:13;6.68;;;6.07;;
13388;SDS011;6764;53.250;10.410;2023-10-13T09:03:54;6.13;;;5.53;;
13388;SDS011;6764;53.250;10.410;2023-10-13T09:06:42;6.55;;;5.90;;
13388;SDS011;6764;53.250;10.410;2023-10-13T09:09:12;6.47;;;5.60;;
13388;SDS011;6764;53.250;10.410;2023-10-13T09:11:51;8.70;;;5.13;;
13388;SDS011;6764;53.250;10.410;2023-10-13T09:14:53;6.55;;;5.70;;
13388;SDS011;6764;53.250;10.410;2023-10-13T09:17:23;5.70;;;5.13;;
13388;SDS011;6764;53.250;10.410;2023-10-13T09:20:00;7.18;;;5.40;;
13388;SDS011;6764;53.250;10.410;2023-10-13T09:22:50;7.97;;;5.18;;
13388;SDS011;6764;53.250;10.410;2023-10-13T09:25:29;5.13;;;4.60;;
13388;SDS011;6764;53.250;10.410;2023-10-13T09:28:22;4.75;;;4.35;;
13388;SDS011;6764;53.250;10.410;2023-10-13T09:30:51;6.15;;;4.40;;
13388;SDS011;6764;53.250;10.410;2023-10-13T09:33:21;5.75;;;4.00;;
13388;SDS011;6764;53.250;10.410;2023-10-13T09:35:58;4.70;;;4.22;;
13388;SDS011;6764;53.250;10.410;2023-10-13T09:38:28;7.22;;;4.75;;
13388;SDS011;6764;53.250;10.410;2023-10-13T09:40:54;5.70;;;4.65;;
13388;SDS011;6764;53.250;10.410;2023-10-13T09:43:23;8.77;;;7.32;;
13388;SDS011;6764;53.250;10.410;2023-10-13T09:45:50;10.82;;;5.38;;
13388;SDS011;6764;53.250;10.410;2023-10-13T09:48:33;5.43;;;4.30;;
13388;SDS011;6764;53.250;10.410;2023-10-13T09:51:02;9.80;;;4.68;;
13388;SDS011;6764;53.250;10.410;2023-10-13T09:53:34;7.88;;;4.35;;
13388;SDS011;6764;53.250;10.410;2023-10-13T09:56:07;8.05;;;4.68;;
13388;SDS011;6764;53.250;10.410;2023-10-13T09:58:55;5.10;;;4.40;;
13388;SDS011;6764;53.250;10.410;2023-10-13T10:01:33;4.60;;;4.18;;
13388;SDS011;6764;53.250;10.410;2023-10-13T10:04:15;6.80;;;4.68;;
13388;SDS011;6764;53.250;10.410;2023-10-13T10:06:56;8.05;;;4.97;;
13388;SDS011;6764;53.250;10.410;2023-10-13T10:09:27;7.25;;;4.78;;
13388;SDS011;6764;53.250;10.410;2023-10-13T10:17:28;5.38;;;4.43;;
13388;SDS011;6764;53.250;10.410;2023-10-13T10:19:58;7.18;;;4.80;;
13388;SDS011;6764;53.250;10.410;2023-10-13T10:22:31;9.38;;;5.10;;
13388;SDS011;6764;53.250;10.410;2023-10-13T10:25:09;8.38;;;5.30;;
13388;SDS011;6764;53.250;10.410;2023-10-13T10:28:00;8.07;;;4.80;;
13388;SDS011;6764;53.250;10.410;2023-10-13T10:30:30;8.27;;;5.78;;
13388;SDS011;6764;53.250;10.410;2023-10-13T10:33:01;6.03;;;5.13;;
13388;SDS011;6764;53.250;10.410;2023-10-13T10:36:00;10.13;;;5.30;;
13388;SDS011;6764;53.250;10.410;2023-10-13T10:38:26;8.95;;;5.35;;
13388;SDS011;6764;53.250;10.410;2023-10-13T10:40:55;7.72;;;5.22;;
13388;SDS011;6764;53.250;10.410;2023-10-13T10:46:12;10.75;;;5.82;;
13388;SDS011;6764;53.250;10.410;2023-10-13T10:48:42;6.80;;;4.93;;
13388;SDS011;6764;53.250;10.410;2023-10-13T10:51:12;9.43;;;5.50;;
13388;SDS011;6764;53.250;10.410;2023-10-13T10:53:40;8.40;;;4.63;;
13388;SDS011;6764;53.250;10.410;2023-10-13T10:56:09;7.50;;;4.75;;
13388;SDS011;6764;53.250;10.410;2023-10-13T10:58:46;6.72;;;4.60;;
13388;SDS011;6764;53.250;10.410;2023-10-13T11:01:12;7.50;;;4.47;;
13388;SDS011;6764;53.250;10.410;2023-10-13T11:04:01;7.47;;;4.25;;
13388;SDS011;6764;53.250;10.410;2023-10-13T11:06:37;7.00;;;3.72;;
13388;SDS011;6764;53.250;10.410;2023-10-13T11:09:07;9.20;;;4.43;;
13388;SDS011;6764;53.250;10.410;2023-10-13T11:11:51;7.20;;;3.95;;
13388;SDS011;6764;53.250;10.410;2023-10-13T11:14:21;7.05;;;4.05;;
13388;SDS011;6764;53.250;10.410;2023-10-13T11:16:51;7.82;;;5.05;;
13388;SDS011;6764;53.250;10.410;2023-10-13T11:19:38;7.97;;;4.38;;
13388;SDS011;6764;53.250;10.410;2023-10-13T11:25:00;6.75;;;4.20;;
13388;SDS011;6764;53.250;10.410;2023-10-13T11:27:36;5.82;;;3.80;;
13388;SDS011;6764;53.250;10.410;2023-10-13T11:30:15;8.95;;;4.18;;
13388;SDS011;6764;53.250;10.410;2023-10-13T11:33:24;9.30;;;4.80;;
13388;SDS011;6764;53.250;10.410;2023-10-13T11:35:43;6.18;;;4.07;;
13388;SDS011;6764;53.250;10.410;2023-10-13T11:38:35;7.93;;;5.68;;
13388;SDS011;6764;53.250;10.410;2023-10-13T11:41:13;7.25;;;4.47;;
13388;SDS011;6764;53.250;10.410;2023-10-13T11:48:35;10.57;;;5.80;;
13388;SDS011;6764;53.250;10.410;2023-10-13T11:51:08;7.93;;;4.80;;
13388;SDS011;6764;53.250;10.410;2023-10-13T11:53:56;7.47;;;4.30;;
13388;SDS011;6764;53.250;10.410;2023-10-13T11:56:21;7.90;;;4.38;;
13388;SDS011;6764;53.250;10.410;2023-10-13T11:58:47;7.55;;;3.85;;
13388;SDS011;6764;53.250;10.410;2023-10-13T12:01:13;9.25;;;4.63;;
13388;SDS011;6764;53.250;10.410;2023-10-13T12:03:40;15.52;;;4.22;;
13388;SDS011;6764;53.250;10.410;2023-10-13T12:06:24;7.78;;;4.20;;
13388;SDS011;6764;53.250;10.410;2023-10-13T12:09:09;8.25;;;4.00;;
13388;SDS011;6764;53.250;10.410;2023-10-13T12:11:44;10.32;;;4.75;;
13388;SDS011;6764;53.250;10.410;2023-10-13T12:14:10;8.50;;;5.32;;
13388;SDS011;6764;53.250;10.410;2023-10-13T12:16:44;12.45;;;6.95;;
13388;SDS011;6764;53.250;10.410;2023-10-13T12:19:20;8.18;;;5.95;;
13388;SDS011;6764;53.250;10.410;2023-10-13T12:21:52;8.88;;;5.30;;
13388;SDS011;6764;53.250;10.410;2023-10-13T12:26:55;9.77;;;4.10;;
13388;SDS011;6764;53.250;10.410;2023-10-13T12:29:24;9.85;;;4.00;;
13388;SDS011;6764;53.250;10.410;2023-10-13T12:31:57;7.65;;;4.68;;
13388;SDS011;6764;53.250;10.410;2023-10-13T12:34:37;10.18;;;4.07;;
13388;SDS011;6764;53.250;10.410;2023-10-13T12:37:27;8.23;;;4.40;;
13388;SDS011;6764;53.250;10.410;2023-10-13T12:43:01;7.53;;;4.63;;
13388;SDS011;6764;53.250;10.410;2023-10-13T12:45:46;10.63;;;4.88;;
13388;SDS011;6764;53.250;10.410;2023-10-13T12:48:32;8.77;;;4.22;;
13388;SDS011;6764;53.250;10.410;2023-10-13T12:51:17;11.73;;;5.00;;
13388;SDS011;6764;53.250;10.410;2023-10-13T12:53:49;12.02;;;4.45;;
13388;SDS011;6764;53.250;10.410;2023-10-13T12:56:16;5.95;;;4.25;;
13388;SDS011;6764;53.250;10.410;2023-10-13T12:58:50;8.02;;;4.45;;
13388;SDS011;6764;53.250;10.410;2023-10-13T13:01:23;12.93;;;5.03;;
13388;SDS011;6764;53.250;10.410;2023-10-13T13:03:54;10.13;;;4.43;;
13388;SDS011;6764;53.250;10.410;2023-10-13T13:06:23;9.52;;;4.22;;
13388;SDS011;6764;53.250;10.410;2023-10-13T13:08:55;14.07;;;4.60;;
13388;SDS011;6764;53.250;10.410;2023-10-13T13:11:22;11.45;;;7.50;;
13388;SDS011;6764;53.250;10.410;2023-10-13T13:13:48;11.38;;;4.65;;
13388;SDS011;6764;53.250;10.410;2023-10-13T13:16:14;12.00;;;5.18;;
13388;SDS011;6764;53.250;10.410;2023-10-13T13:18:43;8.52;;;4.90;;
13388;SDS011;6764;53.250;10.410;2023-10-13T13:21:12;10.60;;;5.65;;
13388;SDS011;6764;53.250;10.410;2023-10-13T13:23:45;14.32;;;4.93;;
13388;SDS011;6764;53.250;10.410;2023-10-13T13:26:11;7.82;;;4.88;;
13388;SDS011;6764;53.250;10.410;2023-10-13T13:28:43;9.77;;;4.88;;
13388;SDS011;6764;53.250;10.410;2023-10-13T13:31:15;10.13;;;4.57;;
13388;SDS011;6764;53.250;10.410;2023-10-13T13:33:41;9.68;;;5.00;;
13388;SDS011;6764;53.250;10.410;2023-10-13T13:36:10;11.60;;;4.50;;
13388;SDS011;6764;53.250;10.410;2023-10-13T13:38:40;8.60;;;4.55;;
13388;SDS011;6764;53.250;10.410;2023-10-13T13:41:13;14.23;;;4.55;;
13388;SDS011;6764;53.250;10.410;2023-10-13T13:43:42;10.52;;;5.70;;
13388;SDS011;6764;53.250;10.410;2023-10-13T13:46:24;9.80;;;4.72;;
13388;SDS011;6764;53.250;10.410;2023-10-13T13:48:53;11.77;;;4.90;;
13388;SDS011;6764;53.250;10.410;2023-10-13T13:51:24;12.45;;;4.60;;
13388;SDS011;6764;53.250;10.410;2023-10-13T13:53:54;8.25;;;4.57;;
13388;SDS011;6764;53.250;10.410;2023-10-13T13:56:20;11.00;;;4.75;;
13388;SDS011;6764;53.250;10.410;2023-10-13T13:58:47;8.25;;;4.78;;
13388;SDS011;6764;53.250;10.410;2023-10-13T14:01:15;9.77;;;4.85;;
13388;SDS011;6764;53.250;10.410;2023-10-13T14:03:44;10.57;;;5.03;;
13388;SDS011;6764;53.250;10.410;2023-10-13T14:06:15;9.43;;;4.40;;
13388;SDS011;6764;53.250;10.410;2023-10-13T14:08:54;13.20;;;5.80;;
13388;SDS011;6764;53.250;10.410;2023-10-13T14:11:46;12.98;;;5.63;;
13388;SDS011;6764;53.250;10.410;2023-10-13T14:14:21;10.90;;;4.75;;
13388;SDS011;6764;53.250;10.410;2023-10-13T14:16:50;12.63;;;5.32;;
13388;SDS011;6764;53.250;10.410;2023-10-13T14:19:16;14.77;;;5.10;;
13388;SDS011;6764;53.250;10.410;2023-10-13T14:21:51;14.52;;;4.88;;
13388;SDS011;6764;53.250;10.410;2023-10-13T14:24:18;12.20;;;5.03;;
13388;SDS011;6764;53.250;10.410;2023-10-13T14:26:53;8.93;;;4.85;;
13388;SDS011;6764;53.250;10.410;2023-10-13T14:29:19;11.73;;;4.88;;
13388;SDS011;6764;53.250;10.410;2023-10-13T14:31:45;15.50;;;5.28;;
13388;SDS011;6764;53.250;10.410;2023-10-13T14:34:13;11.98;;;5.10;;
13388;SDS011;6764;53.250;10.410;2023-10-13T14:36:40;13.32;;;5.55;;
13388;SDS011;6764;53.250;10.410;2023-10-13T14:39:06;11.00;;;5.38;;
13388;SDS011;6764;53.250;10.410;2023-10-13T14:41:35;7.10;;;4.40;;
13388;SDS011;6764;53.250;10.410;2023-10-13T14:44:02;11.32;;;4.70;;
13388;SDS011;6764;53.250;10.410;2023-10-13T14:46:31;15.70;;;5.13;;
13388;SDS011;6764;53.250;10.410;2023-10-13T14:49:00;10.70;;;5.05;;
13388;SDS011;6764;53.250;10.410;2023-10-13T14:51:27;12.65;;;4.97;;
13388;SDS011;6764;53.250;10.410;2023-10-13T14:53:54;16.35;;;5.85;;
13388;SDS011;6764;53.250;10.410;2023-10-13T14:56:24;13.32;;;5.97;;
13388;SDS011;6764;53.250;10.410;2023-10-13T14:58:51;10.13;;;5.18;;
13388;SDS011;6764;53.250;10.410;2023-10-13T15:01:18;15.07;;;5.22;;
13388;SDS011;6764;53.250;10.410;2023-10-13T15:03:46;17.20;;;5.35;;
13388;SDS011;6764;53.250;10.410;2023-10-13T15:06:21;16.17;;;5.40;;
13388;SDS011;6764;53.250;10.410;2023-10-13T15:08:55;14.93;;;5.60;;
13388;SDS011;6764;53.250;10.410;2023-10-13T15:11:21;14.70;;;5.53;;
13388;SDS011;6764;53.250;10.410;2023-10-13T15:13:51;10.43;;;5.22;;
13388;SDS011;6764;53.250;10.410;2023-10-13T15:16:21;10.38;;;5.35;;
13388;SDS011;6764;53.250;10.410;2023-10-13T15:18:49;15.88;;;5.65;;
13388;SDS011;6764;53.250;10.410;2023-10-13T15:21:19;14.00;;;5.95;;
13388;SDS011;6764;53.250;10.410;2023-10-13T15:23:47;14.10;;;5.35;;
13388;SDS011;6764;53.250;10.410;2023-10-13T15:26:13;13.55;;;5.35;;
13388;SDS011;6764;53.250;10.410;2023-10-13T15:28:40;17.02;;;5.25;;
13388;SDS011;6764;53.250;10.410;2023-10-13T15:31:18;13.43;;;7.10;;
13388;SDS011;6764;53.250;10.410;2023-10-13T15:34:13;15.82;;;6.30;;
13388;SDS011;6764;53.250;10.410;2023-10-13T15:36:39;11.85;;;5.43;;
13388;SDS011;6764;53.250;10.410;2023-10-13T15:39:07;16.50;;;5.70;;
13388;SDS011;6764;53.250;10.410;2023-10-13T15:41:35;15.85;;;4.93;;
13388;SDS011;6764;53.250;10.410;2023-10-13T15:44:05;11.48;;;5.25;;
13388;SDS011;6764;53.250;10.410;2023-10-13T15:46:35;17.10;;;5.30;;
13388;SDS011;6764;53.250;10.410;2023-10-13T15:49:01;13.38;;;5.60;;
13388;SDS011;6764;53.250;10.410;2023-10-13T15:51:33;14.90;;;5.88;;